sensor_id;sensor_type;location;lat;lon;timestamp;pressure;altitude;pressure_sealevel;temperature;humidity
8585;BME280;7180;52.742;11.420;2022-08-05T00:02:21;100889.16;;;21.46;100.00
8585;BME280;7180;52.742;11.420;2022-08-05T00:04:47;100900.94;;;21.53;100.00
8585;BME280;7180;52.742;11.420;2022-08-05T00:07:12;100895.88;;;21.50;100.00
8585;BME280;7180;52.742;11.420;2022-08-05T00:09:37;100910.47;;;21.56;100.00
8585;BME280;7180;52.742;11.420;2022-08-05T00:12:03;100930.75;;;21.58;100.00
8585;BME280;7180;52.742;11.420;2022-08-05T00:14:28;100946.47;;;21.61;100.00
8585;BME280;7180;52.742;11.420;2022-08-05T00:16:54;100951.31;;;21.58;100.00
8585;BME280;7180;52.742;11.420;2022-08-05T00:19:23;100917.94;;;21.80;100.00
8585;BME280;7180;52.742;11.420;2022-08-05T00:21:48;100879.91;;;21.58;100.00
8585;BME280;7180;52.742;11.420;2022-08-05T00:24:13;100853.22;;;21.31;100.00
8585;BME280;7180;52.742;11.420;2022-08-05T00:26:39;100854.50;;;21.10;100.00
8585;BME280;7180;52.742;11.420;2022-08-05T00:29:04;100905.44;;;20.99;100.00
8585;BME280;7180;52.742;11.420;2022-08-05T00:31:29;100946.13;;;21.02;100.00
8585;BME280;7180;52.742;11.420;2022-08-05T00:33:54;100925.59;;;20.93;100.00
8585;BME280;7180;52.742;11.420;2022-08-05T00:36:20;100920.41;;;20.92;100.00
8585;BME280;7180;52.742;11.420;2022-08-05T00:38:46;100929.94;;;21.04;100.00
8585;BME280;7180;52.742;11.420;2022-08-05T00:41:12;100902.66;;;21.00;100.00
8585;BME280;7180;52.742;11.420;2022-08-05T00:43:37;100906.88;;;20.93;100.00
8585;BME280;7180;52.742;11.420;2022-08-05T00:46:02;100909.25;;;20.96;100.00
8585;BME280;7180;52.742;11.420;2022-08-05T00:48:28;100915.91;;;20.92;100.00
8585;BME280;7180;52.742;11.420;2022-08-05T00:50:53;100952.03;;;20.96;100.00
8585;BME280;7180;52.742;11.420;2022-08-05T00:53:20;100948.50;;;21.05;100.00
8585;BME280;7180;52.742;11.420;2022-08-05T00:55:46;100923.75;;;21.03;100.00
8585;BME280;7180;52.742;11.420;2022-08-05T00:58:13;100899.84;;;21.02;100.00
8585;BME280;7180;52.742;11.420;2022-08-05T01:00:40;100871.31;;;21.20;100.00
8585;BME280;7180;52.742;11.420;2022-08-05T01:03:06;100863.78;;;21.06;100.00
8585;BME280;7180;52.742;11.420;2022-08-05T01:05:31;100858.44;;;21.06;100.00
8585;BME280;7180;52.742;11.420;2022-08-05T01:07:56;100833.47;;;20.88;100.00
8585;BME280;7180;52.742;11.420;2022-08-05T01:10:27;100833.53;;;20.78;100.00
8585;BME280;7180;52.742;11.420;2022-08-05T01:12:58;100846.69;;;20.89;100.00
8585;BME280;7180;52.742;11.420;2022-08-05T01:15:28;100838.59;;;20.81;100.00
8585;BME280;7180;52.742;11.420;2022-08-05T01:18:00;100849.88;;;20.75;100.00
8585;BME280;7180;52.742;11.420;2022-08-05T01:20:39;100901.75;;;20.73;100.00
8585;BME280;7180;52.742;11.420;2022-08-05T01:28:57;101049.03;;;20.79;100.00
8585;BME280;7180;52.742;11.420;2022-08-05T01:31:41;101059.13;;;20.85;100.00
8585;BME280;7180;52.742;11.420;2022-08-05T01:37:03;101041.09;;;20.87;100.00
8585;BME280;7180;52.742;11.420;2022-08-05T01:39:31;101016.63;;;20.92;100.00
8585;BME280;7180;52.742;11.420;2022-08-05T01:41:58;101000.59;;;21.01;100.00
8585;BME280;7180;52.742;11.420;2022-08-05T01:44:26;100960.34;;;21.03;100.00
8585;BME280;7180;52.742;11.420;2022-08-05T01:46:52;100953.03;;;20.95;100.00
8585;BME280;7180;52.742;11.420;2022-08-05T01:49:21;100940.41;;;20.78;100.00
8585;BME280;7180;52.742;11.420;2022-08-05T01:51:48;100923.03;;;20.64;100.00
8585;BME280;7180;52.742;11.420;2022-08-05T01:54:15;100920.69;;;20.61;100.00
8585;BME280;7180;52.742;11.420;2022-08-05T01:56:42;100904.66;;;20.52;100.00
8585;BME280;7180;52.742;11.420;2022-08-05T01:59:11;100891.47;;;20.50;100.00
8585;BME280;7180;52.742;11.420;2022-08-05T02:01:38;100887.00;;;20.41;100.00
8585;BME280;7180;52.742;11.420;2022-08-05T02:04:05;100907.34;;;20.42;100.00
8585;BME280;7180;52.742;11.420;2022-08-05T02:06:32;100919.19;;;20.40;100.00
8585;BME280;7180;52.742;11.420;2022-08-05T02:08:57;100917.78;;;20.36;100.00
8585;BME280;7180;52.742;11.420;2022-08-05T02:11:23;100946.16;;;20.37;100.00
8585;BME280;7180;52.742;11.420;2022-08-05T02:13:53;100982.84;;;20.35;100.00
8585;BME280;7180;52.742;11.420;2022-08-05T02:16:23;100984.69;;;20.34;100.00
8585;BME280;7180;52.742;11.420;2022-08-05T02:18:58;100968.94;;;20.41;100.00
8585;BME280;7180;52.742;11.420;2022-08-05T02:21:27;100951.50;;;20.37;100.00
8585;BME280;7180;52.742;11.420;2022-08-05T02:23:57;100916.78;;;20.37;100.00
8585;BME280;7180;52.742;11.420;2022-08-05T02:26:26;100902.63;;;20.27;100.00
8585;BME280;7180;52.742;11.420;2022-08-05T02:28:58;100891.94;;;20.27;100.00
8585;BME280;7180;52.742;11.420;2022-08-05T02:31:29;100885.59;;;20.28;100.00
8585;BME280;7180;52.742;11.420;2022-08-05T02:33:58;100869.19;;;20.23;100.00
8585;BME280;7180;52.742;11.420;2022-08-05T02:36:26;100863.00;;;20.22;100.00
8585;BME280;7180;52.742;11.420;2022-08-05T02:38:54;100864.53;;;20.15;100.00
8585;BME280;7180;52.742;11.420;2022-08-05T02:41:21;100878.03;;;20.14;100.00
8585;BME280;7180;52.742;11.420;2022-08-05T02:43:48;100867.19;;;20.06;100.00
8585;BME280;7180;52.742;11.420;2022-08-05T02:46:16;100885.78;;;20.17;100.00
8585;BME280;7180;52.742;11.420;2022-08-05T02:48:43;100877.31;;;20.12;100.00
8585;BME280;7180;52.742;11.420;2022-08-05T02:51:10;100885.88;;;20.06;100.00
8585;BME280;7180;52.742;11.420;2022-08-05T02:53:37;100887.88;;;20.04;100.00
8585;BME280;7180;52.742;11.420;2022-08-05T02:56:04;100865.41;;;19.97;100.00
8585;BME280;7180;52.742;11.420;2022-08-05T02:58:30;100842.94;;;19.90;100.00
8585;BME280;7180;52.742;11.420;2022-08-05T03:00:59;100842.38;;;19.86;100.00
8585;BME280;7180;52.742;11.420;2022-08-05T03:03:26;100848.72;;;19.85;100.00
8585;BME280;7180;52.742;11.420;2022-08-05T03:05:52;100855.16;;;19.83;100.00
8585;BME280;7180;52.742;11.420;2022-08-05T03:08:18;100861.50;;;19.82;100.00
8585;BME280;7180;52.742;11.420;2022-08-05T03:10:44;100863.47;;;19.89;100.00
8585;BME280;7180;52.742;11.420;2022-08-05T03:13:14;100841.81;;;19.83;100.00
8585;BME280;7180;52.742;11.420;2022-08-05T03:15:41;100846.47;;;19.81;100.00
8585;BME280;7180;52.742;11.420;2022-08-05T03:18:07;100857.41;;;19.87;100.00
8585;BME280;7180;52.742;11.420;2022-08-05T03:20:32;100860.78;;;19.80;100.00
8585;BME280;7180;52.742;11.420;2022-08-05T03:22:57;100849.56;;;19.76;100.00
8585;BME280;7180;52.742;11.420;2022-08-05T03:25:23;100861.09;;;19.67;100.00
8585;BME280;7180;52.742;11.420;2022-08-05T03:27:49;100864.47;;;19.69;100.00
8585;BME280;7180;52.742;11.420;2022-08-05T03:30:15;100862.59;;;19.70;100.00
8585;BME280;7180;52.742;11.420;2022-08-05T03:32:40;100865.97;;;19.72;100.00
8585;BME280;7180;52.742;11.420;2022-08-05T03:35:06;100864.72;;;19.76;100.00
8585;BME280;7180;52.742;11.420;2022-08-05T03:37:32;100869.78;;;19.79;100.00
8585;BME280;7180;52.742;11.420;2022-08-05T03:39:58;100880.88;;;19.64;100.00
8585;BME280;7180;52.742;11.420;2022-08-05T03:42:24;100892.94;;;19.69;100.00
8585;BME280;7180;52.742;11.420;2022-08-05T03:44:49;100898.13;;;19.70;100.00
8585;BME280;7180;52.742;11.420;2022-08-05T03:47:14;100900.66;;;19.72;100.00
8585;BME280;7180;52.742;11.420;2022-08-05T03:49:39;100900.25;;;19.67;100.00
8585;BME280;7180;52.742;11.420;2022-08-05T03:52:08;100904.31;;;19.71;100.00
8585;BME280;7180;52.742;11.420;2022-08-05T03:54:44;100915.72;;;19.73;100.00
8585;BME280;7180;52.742;11.420;2022-08-05T03:57:13;100914.00;;;19.72;100.00
8585;BME280;7180;52.742;11.420;2022-08-05T03:59:45;100933.69;;;19.71;100.00
8585;BME280;7180;52.742;11.420;2022-08-05T04:02:11;100949.41;;;19.83;100.00
8585;BME280;7180;52.742;11.420;2022-08-05T04:04:37;100964.16;;;19.87;100.00
8585;BME280;7180;52.742;11.420;2022-08-05T04:07:05;100970.06;;;19.91;100.00
8585;BME280;7180;52.742;11.420;2022-08-05T04:09:31;100974.81;;;19.97;100.00
8585;BME280;7180;52.742;11.420;2022-08-05T04:11:57;100978.34;;;20.07;100.00
8585;BME280;7180;52.742;11.420;2022-08-05T04:14:24;100975.41;;;20.00;100.00
8585;BME280;7180;52.742;11.420;2022-08-05T04:16:50;100974.72;;;19.98;100.00
8585;BME280;7180;52.742;11.420;2022-08-05T04:19:16;100981.88;;;19.98;100.00
8585;BME280;7180;52.742;11.420;2022-08-05T04:21:42;100972.88;;;19.80;100.00
8585;BME280;7180;52.742;11.420;2022-08-05T04:24:07;100996.47;;;19.94;100.00
8585;BME280;7180;52.742;11.420;2022-08-05T04:26:33;100981.88;;;19.98;100.00
8585;BME280;7180;52.742;11.420;2022-08-05T04:28:59;100964.03;;;19.89;100.00
8585;BME280;7180;52.742;11.420;2022-08-05T04:31:24;100937.19;;;19.81;100.00
8585;BME280;7180;52.742;11.420;2022-08-05T04:33:49;100956.28;;;19.67;100.00
8585;BME280;7180;52.742;11.420;2022-08-05T04:36:15;100952.91;;;19.64;100.00
8585;BME280;7180;52.742;11.420;2022-08-05T04:38:43;100948.38;;;19.55;100.00
8585;BME280;7180;52.742;11.420;2022-08-05T04:41:08;100964.97;;;19.49;100.00
8585;BME280;7180;52.742;11.420;2022-08-05T04:43:34;100983.81;;;19.67;100.00
8585;BME280;7180;52.742;11.420;2022-08-05T04:45:59;100986.31;;;19.69;100.00
8585;BME280;7180;52.742;11.420;2022-08-05T04:48:25;100982.41;;;19.73;100.00
8585;BME280;7180;52.742;11.420;2022-08-05T04:50:51;100984.91;;;19.64;100.00
8585;BME280;7180;52.742;11.420;2022-08-05T04:53:17;100982.97;;;19.76;100.00
8585;BME280;7180;52.742;11.420;2022-08-05T04:55:44;100995.06;;;19.80;100.00
8585;BME280;7180;52.742;11.420;2022-08-05T04:58:11;100981.84;;;19.88;100.00
8585;BME280;7180;52.742;11.420;2022-08-05T05:00:37;100965.56;;;19.82;100.00
8585;BME280;7180;52.742;11.420;2022-08-05T05:03:04;100947.72;;;19.73;100.00
8585;BME280;7180;52.742;11.420;2022-08-05T05:05:30;100926.09;;;19.56;100.00
8585;BME280;7180;52.742;11.420;2022-08-05T05:10:27;100914.72;;;19.54;100.00
8585;BME280;7180;52.742;11.420;2022-08-05T05:12:52;100937.84;;;19.35;100.00
8585;BME280;7180;52.742;11.420;2022-08-05T05:15:17;100932.66;;;19.33;100.00
8585;BME280;7180;52.742;11.420;2022-08-05T05:17:43;100933.69;;;19.21;100.00
8585;BME280;7180;52.742;11.420;2022-08-05T05:20:10;100926.41;;;19.23;100.00
8585;BME280;7180;52.742;11.420;2022-08-05T05:22:35;100912.72;;;19.37;100.00
8585;BME280;7180;52.742;11.420;2022-08-05T05:25:01;100908.09;;;19.39;100.00
8585;BME280;7180;52.742;11.420;2022-08-05T05:27:28;100933.53;;;19.53;100.00
8585;BME280;7180;52.742;11.420;2022-08-05T05:29:53;100921.56;;;19.57;100.00
8585;BME280;7180;52.742;11.420;2022-08-05T05:32:18;100914.59;;;19.66;100.00
8585;BME280;7180;52.742;11.420;2022-08-05T05:34:43;100908.94;;;19.59;100.00
8585;BME280;7180;52.742;11.420;2022-08-05T05:37:11;100900.94;;;19.59;100.00
8585;BME280;7180;52.742;11.420;2022-08-05T05:39:36;100889.84;;;19.54;100.00
8585;BME280;7180;52.742;11.420;2022-08-05T05:42:02;100885.06;;;19.48;100.00
8585;BME280;7180;52.742;11.420;2022-08-05T05:44:27;100876.38;;;19.65;100.00
8585;BME280;7180;52.742;11.420;2022-08-05T05:46:52;100859.56;;;19.55;100.00
8585;BME280;7180;52.742;11.420;2022-08-05T05:49:18;100837.66;;;19.51;100.00
8585;BME280;7180;52.742;11.420;2022-08-05T05:51:43;100836.09;;;19.58;100.00
8585;BME280;7180;52.742;11.420;2022-08-05T05:54:08;100832.19;;;19.53;100.00
8585;BME280;7180;52.742;11.420;2022-08-05T05:56:33;100831.88;;;19.66;100.00
8585;BME280;7180;52.742;11.420;2022-08-05T05:59:00;100822.63;;;19.60;100.00
8585;BME280;7180;52.742;11.420;2022-08-05T06:01:26;100842.53;;;19.75;100.00
8585;BME280;7180;52.742;11.420;2022-08-05T06:03:51;100843.81;;;19.61;100.00
8585;BME280;7180;52.742;11.420;2022-08-05T06:06:16;100846.50;;;19.71;100.00
8585;BME280;7180;52.742;11.420;2022-08-05T06:08:41;100823.75;;;19.67;100.00
8585;BME280;7180;52.742;11.420;2022-08-05T06:11:08;100806.31;;;19.73;100.00
8585;BME280;7180;52.742;11.420;2022-08-05T06:13:34;100799.84;;;19.75;100.00
8585;BME280;7180;52.742;11.420;2022-08-05T06:15:59;100829.31;;;19.93;100.00
8585;BME280;7180;52.742;11.420;2022-08-05T06:18:24;100837.19;;;20.04;100.00
8585;BME280;7180;52.742;11.420;2022-08-05T06:20:50;100824.84;;;19.84;100.00
8585;BME280;7180;52.742;11.420;2022-08-05T06:23:15;100849.97;;;20.00;100.00
8585;BME280;7180;52.742;11.420;2022-08-05T06:25:40;100854.59;;;19.98;100.00
8585;BME280;7180;52.742;11.420;2022-08-05T06:28:06;100860.47;;;20.21;100.00
8585;BME280;7180;52.742;11.420;2022-08-05T06:30:31;100864.47;;;20.44;100.00
8585;BME280;7180;52.742;11.420;2022-08-05T06:32:56;100874.66;;;20.67;100.00
8585;BME280;7180;52.742;11.420;2022-08-05T06:35:22;100881.03;;;20.84;100.00
8585;BME280;7180;52.742;11.420;2022-08-05T06:37:48;100879.03;;;20.96;100.00
8585;BME280;7180;52.742;11.420;2022-08-05T06:40:14;100874.50;;;20.96;100.00
8585;BME280;7180;52.742;11.420;2022-08-05T06:42:39;100880.75;;;20.87;100.00
8585;BME280;7180;52.742;11.420;2022-08-05T06:45:05;100880.00;;;21.04;100.00
8585;BME280;7180;52.742;11.420;2022-08-05T06:47:30;100892.13;;;21.43;100.00
8585;BME280;7180;52.742;11.420;2022-08-05T06:49:56;100900.78;;;21.37;100.00
8585;BME280;7180;52.742;11.420;2022-08-05T06:52:21;100897.78;;;21.58;100.00
8585;BME280;7180;52.742;11.420;2022-08-05T06:54:47;100877.69;;;21.72;100.00
8585;BME280;7180;52.742;11.420;2022-08-05T06:57:12;100868.13;;;21.51;100.00
8585;BME280;7180;52.742;11.420;2022-08-05T06:59:40;100891.66;;;22.01;100.00
8585;BME280;7180;52.742;11.420;2022-08-05T07:02:05;100885.06;;;22.56;100.00
8585;BME280;7180;52.742;11.420;2022-08-05T07:04:31;100886.56;;;23.34;100.00
8585;BME280;7180;52.742;11.420;2022-08-05T07:06:56;100879.94;;;24.10;96.72
8585;BME280;7180;52.742;11.420;2022-08-05T07:09:21;100854.41;;;23.66;93.27
8585;BME280;7180;52.742;11.420;2022-08-05T07:11:47;100860.22;;;23.29;95.26
8585;BME280;7180;52.742;11.420;2022-08-05T07:14:12;100862.50;;;23.08;96.48
8585;BME280;7180;52.742;11.420;2022-08-05T07:16:57;100856.44;;;22.64;97.72
8585;BME280;7180;52.742;11.420;2022-08-05T07:19:26;100900.88;;;22.67;98.72
8585;BME280;7180;52.742;11.420;2022-08-05T07:21:52;100895.78;;;22.56;98.70
8585;BME280;7180;52.742;11.420;2022-08-05T07:24:18;100903.97;;;22.37;100.00
8585;BME280;7180;52.742;11.420;2022-08-05T07:26:44;100905.81;;;22.11;100.00
8585;BME280;7180;52.742;11.420;2022-08-05T07:29:10;100907.28;;;22.05;100.00
8585;BME280;7180;52.742;11.420;2022-08-05T07:31:36;100912.34;;;21.91;100.00
8585;BME280;7180;52.742;11.420;2022-08-05T07:34:01;100906.88;;;21.47;100.00
8585;BME280;7180;52.742;11.420;2022-08-05T07:36:27;100947.38;;;21.35;100.00
8585;BME280;7180;52.742;11.420;2022-08-05T07:38:53;100965.34;;;21.15;100.00
8585;BME280;7180;52.742;11.420;2022-08-05T07:41:19;100986.53;;;20.99;100.00
8585;BME280;7180;52.742;11.420;2022-08-05T07:43:45;101001.47;;;20.83;100.00
8585;BME280;7180;52.742;11.420;2022-08-05T07:46:11;101004.41;;;20.89;100.00
8585;BME280;7180;52.742;11.420;2022-08-05T07:48:36;101006.19;;;20.98;100.00
8585;BME280;7180;52.742;11.420;2022-08-05T07:51:02;100973.59;;;20.85;100.00
8585;BME280;7180;52.742;11.420;2022-08-05T07:53:27;100967.16;;;20.78;100.00
8585;BME280;7180;52.742;11.420;2022-08-05T07:55:53;100981.50;;;20.77;100.00
8585;BME280;7180;52.742;11.420;2022-08-05T07:58:18;100971.78;;;20.76;100.00
8585;BME280;7180;52.742;11.420;2022-08-05T08:00:43;100957.09;;;20.53;100.00
8585;BME280;7180;52.742;11.420;2022-08-05T08:03:12;100976.66;;;20.53;100.00
8585;BME280;7180;52.742;11.420;2022-08-05T08:05:39;101002.94;;;20.58;100.00
8585;BME280;7180;52.742;11.420;2022-08-05T08:08:05;101015.63;;;20.93;100.00
8585;BME280;7180;52.742;11.420;2022-08-05T08:10:30;101002.81;;;21.06;100.00
8585;BME280;7180;52.742;11.420;2022-08-05T08:12:56;100974.06;;;21.44;100.00
8585;BME280;7180;52.742;11.420;2022-08-05T08:15:22;100972.47;;;21.79;100.00
8585;BME280;7180;52.742;11.420;2022-08-05T08:17:47;100938.78;;;21.58;100.00
8585;BME280;7180;52.742;11.420;2022-08-05T08:20:12;100938.66;;;21.50;100.00
8585;BME280;7180;52.742;11.420;2022-08-05T08:22:37;100934.69;;;21.37;100.00
8585;BME280;7180;52.742;11.420;2022-08-05T08:25:04;100950.13;;;21.43;100.00
8585;BME280;7180;52.742;11.420;2022-08-05T08:27:31;100940.00;;;21.46;100.00
8585;BME280;7180;52.742;11.420;2022-08-05T08:29:56;100930.06;;;21.56;100.00
8585;BME280;7180;52.742;11.420;2022-08-05T08:32:22;100933.78;;;21.46;100.00
8585;BME280;7180;52.742;11.420;2022-08-05T08:34:47;100921.47;;;21.35;100.00
8585;BME280;7180;52.742;11.420;2022-08-05T08:37:13;100926.28;;;21.32;100.00
8585;BME280;7180;52.742;11.420;2022-08-05T08:39:38;100935.97;;;21.33;100.00
8585;BME280;7180;52.742;11.420;2022-08-05T08:42:04;100935.22;;;21.23;100.00
8585;BME280;7180;52.742;11.420;2022-08-05T08:44:32;100934.53;;;21.38;100.00
8585;BME280;7180;52.742;11.420;2022-08-05T08:46:57;100921.16;;;21.38;100.00
8585;BME280;7180;52.742;11.420;2022-08-05T08:49:23;100927.91;;;21.60;100.00
8585;BME280;7180;52.742;11.420;2022-08-05T08:51:57;100913.91;;;21.48;100.00
8585;BME280;7180;52.742;11.420;2022-08-05T08:54:24;100915.16;;;21.72;100.00
8585;BME280;7180;52.742;11.420;2022-08-05T08:56:50;100912.06;;;21.66;100.00
8585;BME280;7180;52.742;11.420;2022-08-05T08:59:19;100912.84;;;22.12;100.00
8585;BME280;7180;52.742;11.420;2022-08-05T09:01:45;100885.03;;;21.70;100.00
8585;BME280;7180;52.742;11.420;2022-08-05T09:04:12;100892.13;;;21.43;100.00
8585;BME280;7180;52.742;11.420;2022-08-05T09:06:37;100929.53;;;21.88;100.00
8585;BME280;7180;52.742;11.420;2022-08-05T09:09:03;100933.19;;;22.22;100.00
8585;BME280;7180;52.742;11.420;2022-08-05T09:11:34;100893.00;;;21.97;100.00
8585;BME280;7180;52.742;11.420;2022-08-05T09:14:00;100902.25;;;21.85;100.00
8585;BME280;7180;52.742;11.420;2022-08-05T09:16:26;100918.31;;;22.53;99.45
8585;BME280;7180;52.742;11.420;2022-08-05T09:18:51;100905.91;;;22.70;97.62
8585;BME280;7180;52.742;11.420;2022-08-05T09:21:18;100907.22;;;23.00;94.31
8585;BME280;7180;52.742;11.420;2022-08-05T09:23:44;100898.72;;;23.12;93.71
8585;BME280;7180;52.742;11.420;2022-08-05T09:26:12;100889.53;;;23.23;94.67
8585;BME280;7180;52.742;11.420;2022-08-05T09:28:42;100885.88;;;22.90;93.97
8585;BME280;7180;52.742;11.420;2022-08-05T09:31:09;100899.91;;;23.26;93.39
8585;BME280;7180;52.742;11.420;2022-08-05T09:33:50;100872.16;;;22.93;93.40
8585;BME280;7180;52.742;11.420;2022-08-05T09:36:15;100902.88;;;23.56;92.90
8585;BME280;7180;52.742;11.420;2022-08-05T09:39:00;100892.09;;;23.32;91.25
8585;BME280;7180;52.742;11.420;2022-08-05T09:41:25;100892.41;;;22.88;93.74
8585;BME280;7180;52.742;11.420;2022-08-05T09:43:52;100916.81;;;23.10;93.78
8585;BME280;7180;52.742;11.420;2022-08-05T09:48:49;100896.91;;;22.79;94.06
8585;BME280;7180;52.742;11.420;2022-08-05T09:51:16;100928.91;;;23.22;94.20
8585;BME280;7180;52.742;11.420;2022-08-05T09:53:50;100939.59;;;23.56;94.31
8585;BME280;7180;52.742;11.420;2022-08-05T09:56:32;100898.06;;;24.24;87.53
8585;BME280;7180;52.742;11.420;2022-08-05T09:59:06;100883.41;;;24.43;86.40
8585;BME280;7180;52.742;11.420;2022-08-05T10:01:32;100846.81;;;23.45;86.65
8585;BME280;7180;52.742;11.420;2022-08-05T10:06:27;100913.63;;;24.53;85.67
8585;BME280;7180;52.742;11.420;2022-08-05T10:08:53;100903.59;;;24.31;87.05
8585;BME280;7180;52.742;11.420;2022-08-05T10:11:18;100890.53;;;24.04;86.87
8585;BME280;7180;52.742;11.420;2022-08-05T10:13:44;100892.16;;;23.97;85.61
8585;BME280;7180;52.742;11.420;2022-08-05T10:16:34;100901.78;;;24.15;85.96
8585;BME280;7180;52.742;11.420;2022-08-05T10:19:01;100871.03;;;23.70;87.51
8585;BME280;7180;52.742;11.420;2022-08-05T10:21:27;100874.34;;;23.39;89.61
8585;BME280;7180;52.742;11.420;2022-08-05T10:23:53;100872.06;;;23.19;90.72
8585;BME280;7180;52.742;11.420;2022-08-05T10:26:19;100914.25;;;23.42;93.71
8585;BME280;7180;52.742;11.420;2022-08-05T10:28:46;100952.66;;;24.01;91.83
8585;BME280;7180;52.742;11.420;2022-08-05T10:31:13;100910.69;;;24.08;88.85
8585;BME280;7180;52.742;11.420;2022-08-05T10:33:39;100916.72;;;24.02;88.31
8585;BME280;7180;52.742;11.420;2022-08-05T10:36:05;100917.69;;;24.25;88.05
8585;BME280;7180;52.742;11.420;2022-08-05T10:38:33;100899.88;;;24.32;85.98
8585;BME280;7180;52.742;11.420;2022-08-05T10:41:10;100907.09;;;24.47;85.63
8585;BME280;7180;52.742;11.420;2022-08-05T10:46:14;100907.94;;;23.59;89.26
8585;BME280;7180;52.742;11.420;2022-08-05T10:48:54;100920.47;;;23.43;90.55
8585;BME280;7180;52.742;11.420;2022-08-05T10:51:21;100956.63;;;23.81;91.29
8585;BME280;7180;52.742;11.420;2022-08-05T10:56:17;100947.09;;;24.18;86.00
8585;BME280;7180;52.742;11.420;2022-08-05T11:01:27;100925.09;;;24.31;85.37
8585;BME280;7180;52.742;11.420;2022-08-05T11:04:01;100926.28;;;24.12;87.01
8585;BME280;7180;52.742;11.420;2022-08-05T11:06:27;100944.75;;;24.07;86.87
8585;BME280;7180;52.742;11.420;2022-08-05T11:09:12;100911.94;;;23.55;87.10
8585;BME280;7180;52.742;11.420;2022-08-05T11:11:37;100936.63;;;23.17;90.63
8585;BME280;7180;52.742;11.420;2022-08-05T11:14:03;100940.81;;;22.86;93.11
8585;BME280;7180;52.742;11.420;2022-08-05T11:16:29;100964.03;;;22.70;94.98
8585;BME280;7180;52.742;11.420;2022-08-05T11:19:24;100979.00;;;22.54;96.27
8585;BME280;7180;52.742;11.420;2022-08-05T11:21:50;100995.63;;;22.58;97.07
8585;BME280;7180;52.742;11.420;2022-08-05T11:24:16;101009.59;;;22.70;97.54
8585;BME280;7180;52.742;11.420;2022-08-05T11:26:41;101014.84;;;22.79;98.04
8585;BME280;7180;52.742;11.420;2022-08-05T11:29:06;101013.41;;;23.18;96.63
8585;BME280;7180;52.742;11.420;2022-08-05T11:31:32;101011.91;;;23.24;94.91
8585;BME280;7180;52.742;11.420;2022-08-05T11:34:02;101023.41;;;23.84;91.05
8585;BME280;7180;52.742;11.420;2022-08-05T11:36:41;100994.94;;;23.49;90.80
8585;BME280;7180;52.742;11.420;2022-08-05T11:39:08;100989.34;;;23.34;91.69
8585;BME280;7180;52.742;11.420;2022-08-05T11:41:36;100969.59;;;23.10;91.61
8585;BME280;7180;52.742;11.420;2022-08-05T11:44:04;100974.78;;;23.03;92.39
8585;BME280;7180;52.742;11.420;2022-08-05T11:49:12;100972.53;;;23.24;89.62
8585;BME280;7180;52.742;11.420;2022-08-05T11:51:43;100982.09;;;23.27;89.64
8585;BME280;7180;52.742;11.420;2022-08-05T11:54:34;100989.09;;;23.53;89.67
8585;BME280;7180;52.742;11.420;2022-08-05T11:57:03;100974.88;;;23.19;90.14
8585;BME280;7180;52.742;11.420;2022-08-05T11:59:29;101001.34;;;23.48;90.01
8585;BME280;7180;52.742;11.420;2022-08-05T12:04:35;100954.66;;;23.07;89.44
8585;BME280;7180;52.742;11.420;2022-08-05T12:07:01;100988.25;;;23.53;88.20
8585;BME280;7180;52.742;11.420;2022-08-05T12:09:28;100981.38;;;24.08;85.03
8585;BME280;7180;52.742;11.420;2022-08-05T12:11:59;100953.75;;;23.82;83.83
8585;BME280;7180;52.742;11.420;2022-08-05T12:14:35;100938.84;;;22.62;88.92
8585;BME280;7180;52.742;11.420;2022-08-05T12:17:06;100971.97;;;22.79;89.32
8585;BME280;7180;52.742;11.420;2022-08-05T12:19:39;100986.84;;;23.07;89.92
8585;BME280;7180;52.742;11.420;2022-08-05T12:22:05;100979.06;;;22.88;90.19
8585;BME280;7180;52.742;11.420;2022-08-05T12:24:30;101013.56;;;23.42;88.68
8585;BME280;7180;52.742;11.420;2022-08-05T12:26:56;101005.50;;;23.42;87.61
8585;BME280;7180;52.742;11.420;2022-08-05T12:29:24;100994.31;;;23.21;88.57
8585;BME280;7180;52.742;11.420;2022-08-05T12:31:51;101027.78;;;23.35;88.98
8585;BME280;7180;52.742;11.420;2022-08-05T12:34:18;101020.06;;;23.32;88.59
8585;BME280;7180;52.742;11.420;2022-08-05T12:36:45;101035.06;;;23.50;87.56
8585;BME280;7180;52.742;11.420;2022-08-05T12:39:11;100991.09;;;22.84;88.53
8585;BME280;7180;52.742;11.420;2022-08-05T12:41:38;101000.78;;;22.77;90.00
8585;BME280;7180;52.742;11.420;2022-08-05T12:44:06;101035.63;;;22.77;91.27
8585;BME280;7180;52.742;11.420;2022-08-05T12:46:34;101040.63;;;22.37;92.12
8585;BME280;7180;52.742;11.420;2022-08-05T12:49:10;101051.97;;;22.31;92.51
8585;BME280;7180;52.742;11.420;2022-08-05T12:51:55;101060.78;;;22.06;93.93
8585;BME280;7180;52.742;11.420;2022-08-05T12:54:26;101058.50;;;21.56;94.83
8585;BME280;7180;52.742;11.420;2022-08-05T12:56:55;101069.25;;;21.10;97.92
8585;BME280;7180;52.742;11.420;2022-08-05T12:59:23;101109.75;;;20.96;100.00
8585;BME280;7180;52.742;11.420;2022-08-05T13:01:56;101140.16;;;20.57;100.00
8585;BME280;7180;52.742;11.420;2022-08-05T13:04:39;101152.56;;;19.99;100.00
8585;BME280;7180;52.742;11.420;2022-08-05T13:07:08;101152.16;;;19.74;100.00
8585;BME280;7180;52.742;11.420;2022-08-05T13:09:41;101172.19;;;19.58;100.00
8585;BME280;7180;52.742;11.420;2022-08-05T13:12:12;101176.97;;;19.55;100.00
8585;BME280;7180;52.742;11.420;2022-08-05T13:14:39;101146.91;;;19.53;100.00
8585;BME280;7180;52.742;11.420;2022-08-05T13:17:26;101110.38;;;19.53;99.83
8585;BME280;7180;52.742;11.420;2022-08-05T13:20:13;101112.25;;;19.62;97.39
8585;BME280;7180;52.742;11.420;2022-08-05T13:22:46;101115.16;;;19.90;97.46
8585;BME280;7180;52.742;11.420;2022-08-05T13:25:14;101121.50;;;20.08;96.77